createdAt,value
2018-08-04T00:02:18.383Z,8.98
2018-08-04T00:04:46.010Z,9.40
2018-08-04T00:07:13.691Z,14.07
2018-08-04T00:09:41.502Z,14.00
2018-08-04T00:12:09.485Z,13.60
2018-08-04T00:14:37.129Z,12.25
2018-08-04T00:17:05.105Z,11.35
2018-08-04T00:19:32.747Z,11.15
2018-08-04T00:22:00.460Z,10.58
2018-08-04T00:24:28.184Z,9.98
2018-08-04T00:26:56.188Z,9.23
2018-08-04T00:29:24.061Z,9.48
2018-08-04T00:31:51.737Z,12.03
2018-08-04T00:34:19.402Z,13.45
2018-08-04T00:36:47.361Z,13.58
2018-08-04T00:39:15.033Z,12.45
2018-08-04T00:41:42.667Z,11.45
2018-08-04T00:44:10.568Z,10.93
2018-08-04T00:46:38.151Z,11.88
2018-08-04T00:49:05.852Z,12.47
2018-08-04T00:51:33.533Z,11.55
2018-08-04T00:54:01.421Z,11.53
2018-08-04T00:56:29.078Z,10.45
2018-08-04T00:58:56.766Z,11.00
2018-08-04T01:01:24.401Z,10.55
2018-08-04T01:03:52.114Z,11.10
2018-08-04T01:06:19.764Z,13.28
2018-08-04T01:08:47.465Z,13.72
2018-08-04T01:11:15.166Z,12.05
2018-08-04T01:13:42.799Z,10.32
2018-08-04T01:16:10.466Z,8.95
2018-08-04T01:18:38.104Z,8.25
2018-08-04T01:21:05.780Z,7.87
2018-08-04T01:23:33.651Z,11.90
2018-08-04T01:26:01.241Z,11.80
2018-08-04T01:28:28.896Z,10.35
2018-08-04T01:30:56.492Z,10.00
2018-08-04T01:33:24.240Z,10.93
2018-08-04T01:35:51.860Z,9.93
2018-08-04T01:38:21.077Z,10.10
2018-08-04T01:40:48.779Z,9.38
2018-08-04T01:43:16.300Z,10.00
2018-08-04T01:45:44.120Z,9.28
2018-08-04T01:48:11.798Z,9.75
2018-08-04T01:50:39.461Z,9.85
2018-08-04T01:53:07.194Z,9.70
2018-08-04T01:55:34.868Z,12.33
2018-08-04T01:58:02.485Z,11.85
2018-08-04T02:00:30.148Z,11.25
2018-08-04T02:02:57.751Z,10.68
2018-08-04T02:05:25.432Z,10.35
2018-08-04T02:07:53.131Z,10.90
2018-08-04T02:10:20.767Z,10.35
2018-08-04T02:12:48.437Z,10.60
2018-08-04T02:15:16.112Z,9.93
2018-08-04T02:17:43.792Z,11.48
2018-08-04T02:20:11.408Z,11.63
2018-08-04T02:22:39.076Z,10.90
2018-08-04T02:25:06.733Z,10.50
2018-08-04T02:27:34.409Z,9.73
2018-08-04T02:30:02.303Z,9.35
2018-08-04T02:32:30.193Z,9.45
2018-08-04T02:34:57.821Z,9.88
2018-08-04T02:37:25.497Z,9.30
2018-08-04T02:39:53.596Z,10.80
2018-08-04T02:42:21.251Z,12.35
2018-08-04T02:44:48.988Z,11.93
2018-08-04T02:47:16.728Z,12.68
2018-08-04T02:49:44.362Z,10.78
2018-08-04T02:52:11.989Z,9.35
2018-08-04T02:54:39.733Z,10.68
2018-08-04T02:57:07.418Z,10.60
2018-08-04T02:59:35.033Z,13.10
2018-08-04T03:02:02.702Z,11.10
2018-08-04T03:04:30.694Z,10.40
2018-08-04T03:06:58.309Z,11.40
2018-08-04T03:09:26.006Z,10.28
2018-08-04T03:11:53.649Z,8.60
2018-08-04T03:14:21.465Z,8.38
2018-08-04T03:16:49.112Z,8.93
2018-08-04T03:19:16.772Z,8.58
2018-08-04T03:21:44.409Z,13.53
2018-08-04T03:24:12.091Z,12.43
2018-08-04T03:26:39.768Z,12.25
2018-08-04T03:29:07.392Z,11.75
2018-08-04T03:31:35.097Z,13.10
2018-08-04T03:34:02.765Z,13.40
2018-08-04T03:36:30.460Z,12.33
2018-08-04T03:38:58.109Z,12.40
2018-08-04T03:41:25.803Z,10.18
2018-08-04T03:43:53.423Z,11.28
2018-08-04T03:46:21.403Z,11.57
2018-08-04T03:48:49.308Z,11.78
2018-08-04T03:51:17.113Z,11.80
2018-08-04T03:53:45.116Z,12.33
2018-08-04T03:56:12.834Z,12.85
2018-08-04T03:58:40.511Z,11.57
2018-08-04T04:01:08.168Z,10.48
2018-08-04T04:03:35.985Z,10.08
2018-08-04T04:06:03.695Z,9.23
2018-08-04T04:08:31.352Z,8.35
2018-08-04T04:10:59.114Z,11.08
2018-08-04T04:13:26.801Z,12.20
2018-08-04T04:15:54.495Z,12.23
2018-08-04T04:18:22.307Z,11.55
2018-08-04T04:20:50.119Z,10.75
2018-08-04T04:23:17.754Z,10.00
2018-08-04T04:25:45.532Z,9.23
2018-08-04T04:28:13.173Z,9.25
2018-08-04T04:30:41.115Z,10.75
2018-08-04T04:33:09.055Z,9.70
2018-08-04T04:35:36.839Z,12.35
2018-08-04T04:38:04.470Z,13.18
2018-08-04T04:40:32.502Z,18.20
2018-08-04T04:43:00.149Z,16.02
2018-08-04T04:45:27.969Z,14.50
2018-08-04T04:47:55.687Z,11.45
2018-08-04T04:50:23.389Z,10.53
2018-08-04T04:52:51.085Z,11.15
2018-08-04T04:55:18.779Z,15.88
2018-08-04T04:57:46.423Z,14.75
2018-08-04T05:00:14.852Z,12.47
2018-08-04T05:02:42.682Z,12.40
2018-08-04T05:05:10.387Z,12.05
2018-08-04T05:07:38.251Z,10.00
2018-08-04T05:10:06.148Z,10.82
2018-08-04T05:12:34.029Z,9.20
2018-08-04T05:15:01.871Z,8.00
2018-08-04T05:17:29.542Z,10.23
2018-08-04T05:19:58.021Z,10.08
2018-08-04T05:22:26.460Z,9.25
2018-08-04T05:24:54.596Z,9.93
2018-08-04T05:27:22.350Z,8.78
2018-08-04T05:29:50.373Z,8.88
2018-08-04T05:32:18.058Z,7.83
2018-08-04T05:34:45.732Z,8.15
2018-08-04T05:37:14.066Z,8.70
2018-08-04T05:39:41.711Z,7.47
2018-08-04T05:42:09.473Z,6.90
2018-08-04T05:44:36.954Z,6.87
2018-08-04T05:47:04.608Z,6.97
2018-08-04T05:49:32.500Z,6.95
2018-08-04T05:52:00.092Z,6.83
2018-08-04T05:54:27.939Z,6.75
2018-08-04T05:56:55.786Z,6.60
2018-08-04T05:59:23.576Z,6.65
2018-08-04T06:01:51.334Z,5.70
2018-08-04T06:04:19.156Z,7.53
2018-08-04T06:06:47.196Z,7.37
2018-08-04T06:09:15.056Z,7.05
2018-08-04T06:11:42.621Z,6.90
2018-08-04T06:14:10.960Z,6.35
2018-08-04T06:16:38.908Z,5.53
2018-08-04T06:19:06.832Z,4.90
2018-08-04T06:21:34.592Z,5.20
2018-08-04T06:24:02.919Z,6.10
2018-08-04T06:26:30.802Z,4.85
2018-08-04T06:28:58.548Z,5.00
2018-08-04T06:31:26.233Z,5.35
2018-08-04T06:33:54.059Z,8.80
2018-08-04T06:36:22.281Z,10.10
2018-08-04T06:38:50.300Z,9.00
2018-08-04T06:41:17.958Z,9.33
2018-08-04T06:43:45.671Z,8.40
2018-08-04T06:46:13.610Z,8.93
2018-08-04T06:48:41.929Z,7.45
2018-08-04T06:51:10.329Z,6.50
2018-08-04T06:53:37.868Z,6.80
2018-08-04T06:56:05.564Z,7.55
2018-08-04T06:58:34.033Z,11.78
2018-08-04T07:01:02.331Z,9.55
2018-08-04T07:03:29.939Z,9.93
2018-08-04T07:05:57.740Z,13.53
2018-08-04T07:08:25.444Z,15.32
2018-08-04T07:10:53.359Z,12.75
2018-08-04T07:13:20.948Z,11.10
2018-08-04T07:15:48.685Z,9.98
2018-08-04T07:18:16.352Z,8.70
2018-08-04T07:20:43.984Z,8.58
2018-08-04T07:23:11.785Z,9.15
2018-08-04T07:25:39.417Z,10.93
2018-08-04T07:28:07.188Z,12.23
2018-08-04T07:30:35.097Z,13.62
2018-08-04T07:33:02.810Z,15.08
2018-08-04T07:35:30.510Z,12.05
2018-08-04T07:37:58.964Z,14.58
2018-08-04T07:40:26.760Z,15.43
2018-08-04T07:42:54.457Z,13.35
2018-08-04T07:45:22.242Z,11.45
2018-08-04T07:47:49.973Z,9.93
2018-08-04T07:50:17.608Z,17.55
2018-08-04T07:52:45.629Z,18.80
2018-08-04T07:55:13.156Z,19.07
2018-08-04T07:57:40.813Z,18.35
2018-08-04T08:00:09.060Z,17.35
2018-08-04T08:02:36.733Z,15.60
2018-08-04T08:05:04.817Z,13.98
2018-08-04T08:07:32.520Z,13.10
2018-08-04T08:10:00.243Z,13.13
2018-08-04T08:12:28.023Z,13.05
2018-08-04T08:14:55.820Z,12.45
2018-08-04T08:17:23.431Z,15.70
2018-08-04T08:19:51.279Z,20.17
2018-08-04T08:22:19.659Z,18.55
2018-08-04T08:24:47.424Z,17.23
2018-08-04T08:27:16.188Z,16.10
2018-08-04T08:29:43.971Z,14.50
2018-08-04T08:32:11.916Z,12.30
2018-08-04T08:34:39.872Z,12.37
2018-08-04T08:37:07.555Z,14.47
2018-08-04T08:39:35.614Z,12.93
2018-08-04T08:42:03.286Z,12.23
2018-08-04T08:44:30.991Z,12.90
2018-08-04T08:46:58.629Z,14.63
2018-08-04T08:49:26.407Z,15.40
2018-08-04T08:51:54.092Z,14.20
2018-08-04T08:54:21.724Z,13.22
2018-08-04T08:56:49.570Z,15.00
2018-08-04T08:59:17.213Z,13.83
2018-08-04T09:01:44.851Z,13.78
2018-08-04T09:04:12.533Z,14.50
2018-08-04T09:06:40.275Z,13.70
2018-08-04T09:09:08.825Z,14.10
2018-08-04T09:11:36.755Z,12.33
2018-08-04T09:14:04.493Z,11.30
2018-08-04T09:16:32.122Z,13.90
2018-08-04T09:18:59.933Z,12.43
2018-08-04T09:21:27.647Z,13.78
2018-08-04T09:23:55.491Z,12.98
2018-08-04T09:26:23.164Z,12.33
2018-08-04T09:28:50.832Z,12.50
2018-08-04T09:31:18.558Z,11.48
2018-08-04T09:33:46.227Z,11.83
2018-08-04T09:36:14.140Z,9.88
2018-08-04T09:38:41.848Z,11.28
2018-08-04T09:41:09.530Z,10.20
2018-08-04T09:43:37.219Z,10.88
2018-08-04T09:46:05.758Z,11.03
2018-08-04T09:48:33.393Z,10.25
2018-08-04T09:51:01.042Z,8.73
2018-08-04T09:53:28.757Z,10.55
2018-08-04T09:55:56.603Z,9.40
2018-08-04T09:58:24.538Z,9.40
2018-08-04T10:00:57.980Z,10.55
2018-08-04T10:03:26.228Z,10.08
2018-08-04T10:05:53.992Z,9.18
2018-08-04T10:08:21.636Z,10.40
2018-08-04T10:10:49.559Z,9.40
2018-08-04T10:13:17.405Z,8.08
2018-08-04T10:15:45.072Z,9.50
2018-08-04T10:18:13.104Z,8.40
2018-08-04T10:20:40.767Z,9.83
2018-08-04T10:23:08.480Z,8.05
2018-08-04T10:25:36.179Z,8.25
2018-08-04T10:28:03.866Z,7.87
2018-08-04T10:30:31.474Z,9.18
2018-08-04T10:32:59.144Z,9.55
2018-08-04T10:35:26.731Z,10.00
2018-08-04T10:37:54.552Z,9.75
2018-08-04T10:40:22.268Z,9.43
2018-08-04T10:42:49.944Z,8.60
2018-08-04T10:45:17.848Z,7.33
2018-08-04T10:47:45.619Z,8.78
2018-08-04T10:50:13.490Z,9.63
2018-08-04T10:52:41.263Z,9.48
2018-08-04T10:55:09.142Z,9.95
2018-08-04T10:57:37.359Z,9.65
2018-08-04T11:00:07.017Z,9.73
2018-08-04T11:02:34.547Z,10.10
2018-08-04T11:05:02.373Z,9.10
2018-08-04T11:07:30.021Z,9.08
2018-08-04T11:09:57.733Z,9.05
2018-08-04T11:12:25.547Z,8.60
2018-08-04T11:14:53.525Z,8.40
2018-08-04T11:17:21.276Z,8.78
2018-08-04T11:19:48.929Z,9.43
2018-08-04T11:22:16.624Z,8.83
2018-08-04T11:24:44.302Z,8.55
2018-08-04T11:27:12.054Z,9.03
2018-08-04T11:29:39.861Z,9.55
2018-08-04T11:32:07.672Z,8.63
2018-08-04T11:34:35.449Z,8.00
2018-08-04T11:37:03.089Z,8.20
2018-08-04T11:39:37.435Z,7.97
2018-08-04T11:42:05.248Z,7.30
2018-08-04T11:44:32.900Z,7.40
2018-08-04T11:47:00.534Z,7.30
2018-08-04T11:49:28.276Z,6.47
2018-08-04T11:51:55.910Z,7.70
2018-08-04T11:54:23.564Z,7.83
2018-08-04T11:56:51.508Z,7.05
2018-08-04T11:59:19.208Z,7.37
2018-08-04T12:01:46.991Z,8.20
2018-08-04T12:04:15.104Z,8.23
2018-08-04T12:06:42.627Z,7.42
2018-08-04T12:09:11.978Z,6.28
2018-08-04T12:11:39.781Z,6.50
2018-08-04T12:14:08.201Z,6.10
2018-08-04T12:16:35.862Z,6.58
2018-08-04T12:19:03.685Z,6.12
2018-08-04T12:21:31.352Z,7.30
2018-08-04T12:24:01.322Z,5.33
2018-08-04T12:26:29.208Z,5.60
2018-08-04T12:28:56.851Z,5.25
2018-08-04T12:31:24.555Z,7.75
2018-08-04T12:33:52.237Z,7.87
2018-08-04T12:36:20.792Z,7.08
2018-08-04T12:38:48.472Z,7.50
2018-08-04T12:41:16.216Z,7.35
2018-08-04T12:43:43.879Z,6.28
2018-08-04T12:46:12.464Z,6.03
2018-08-04T12:48:40.050Z,6.28
2018-08-04T12:51:08.266Z,6.90
2018-08-04T12:53:36.506Z,6.10
2018-08-04T12:56:04.185Z,7.40
2018-08-04T12:58:31.733Z,7.70
2018-08-04T13:00:59.412Z,8.63
2018-08-04T13:03:27.049Z,8.43
2018-08-04T13:05:54.701Z,7.08
2018-08-04T13:08:22.178Z,7.30
2018-08-04T13:10:50.484Z,8.33
2018-08-04T13:13:18.167Z,8.23
2018-08-04T13:15:46.091Z,8.85
2018-08-04T13:18:13.736Z,8.83
2018-08-04T13:20:41.876Z,8.95
2018-08-04T13:23:09.430Z,8.73
2018-08-04T13:25:37.718Z,8.50
2018-08-04T13:28:05.636Z,9.08
2018-08-04T13:30:33.213Z,9.65
2018-08-04T13:33:01.027Z,7.67
2018-08-04T13:35:28.515Z,8.83
2018-08-04T13:37:56.124Z,9.55
2018-08-04T13:40:24.016Z,8.53
2018-08-04T13:42:51.750Z,8.60
2018-08-04T13:45:19.407Z,10.03
2018-08-04T13:47:46.982Z,8.05
2018-08-04T13:50:14.650Z,8.93
2018-08-04T13:52:42.379Z,9.15
2018-08-04T13:55:10.256Z,8.48
2018-08-04T13:57:38.037Z,8.00
2018-08-04T14:00:06.164Z,8.85
2018-08-04T14:02:33.772Z,8.70
2018-08-04T14:05:01.499Z,9.23
2018-08-04T14:07:29.112Z,8.15
2018-08-04T14:09:57.704Z,9.13
2018-08-04T14:12:25.654Z,9.20
2018-08-04T14:14:53.302Z,9.15
2018-08-04T14:17:21.573Z,8.75
2018-08-04T14:19:49.106Z,8.45
2018-08-04T14:22:17.552Z,9.50
2018-08-04T14:24:45.328Z,9.38
2018-08-04T14:27:12.971Z,9.90
2018-08-04T14:29:40.865Z,8.05
2018-08-04T14:32:08.507Z,8.28
2018-08-04T14:34:36.087Z,7.50
2018-08-04T14:37:03.732Z,8.70
2018-08-04T14:39:31.393Z,7.45
2018-08-04T14:41:59.213Z,7.53
2018-08-04T14:44:27.280Z,7.50
2018-08-04T14:46:55.172Z,6.42
2018-08-04T14:49:22.741Z,8.10
2018-08-04T14:51:50.379Z,8.85
2018-08-04T14:54:18.765Z,8.60
2018-08-04T14:56:46.441Z,7.97
2018-08-04T14:59:14.184Z,9.23
2018-08-04T15:01:41.966Z,8.93
2018-08-04T15:04:09.865Z,8.85
2018-08-04T15:06:38.156Z,8.00
2018-08-04T15:09:08.724Z,7.37
2018-08-04T15:11:36.588Z,7.97
2018-08-04T15:14:04.225Z,8.33
2018-08-04T15:16:31.840Z,6.97
2018-08-04T15:18:59.460Z,9.00
2018-08-04T15:21:27.129Z,10.75
2018-08-04T15:23:54.968Z,9.80
2018-08-04T15:26:22.587Z,10.32
2018-08-04T15:28:50.181Z,9.55
2018-08-04T15:31:17.887Z,9.08
2018-08-04T15:33:45.613Z,9.13
2018-08-04T15:36:13.209Z,10.98
2018-08-04T15:38:40.863Z,10.85
2018-08-04T15:41:08.448Z,10.28
2018-08-04T15:43:36.001Z,10.13
2018-08-04T15:46:03.900Z,9.98
2018-08-04T15:48:31.477Z,10.82
2018-08-04T15:50:59.059Z,11.15
2018-08-04T15:53:26.620Z,11.38
2018-08-04T15:55:54.224Z,9.70
2018-08-04T15:58:21.792Z,9.60
2018-08-04T16:00:49.352Z,10.45
2018-08-04T16:03:17.154Z,9.85
2018-08-04T16:05:44.724Z,10.93
2018-08-04T16:08:12.455Z,12.25
2018-08-04T16:10:40.037Z,10.70
2018-08-04T16:13:07.620Z,9.98
2018-08-04T16:15:35.507Z,9.23
2018-08-04T16:18:03.131Z,9.23
2018-08-04T16:20:30.707Z,11.57
2018-08-04T16:22:58.328Z,11.22
2018-08-04T16:25:26.057Z,11.48
2018-08-04T16:27:54.048Z,12.13
2018-08-04T16:30:21.664Z,12.53
2018-08-04T16:32:49.291Z,12.90
2018-08-04T16:35:16.944Z,13.30
2018-08-04T16:37:44.722Z,13.08
2018-08-04T16:40:12.304Z,11.68
2018-08-04T16:42:40.185Z,12.25
2018-08-04T16:45:07.922Z,12.78
2018-08-04T16:47:35.868Z,13.00
2018-08-04T16:50:03.507Z,12.58
2018-08-04T16:52:31.557Z,12.95
2018-08-04T16:54:59.225Z,13.78
2018-08-04T16:57:26.847Z,12.30
2018-08-04T16:59:54.581Z,12.40
2018-08-04T17:02:22.487Z,12.93
2018-08-04T17:04:50.052Z,11.40
2018-08-04T17:09:51.952Z,11.77
2018-08-04T17:12:19.591Z,12.00
2018-08-04T17:14:47.135Z,13.13
2018-08-04T17:17:14.742Z,13.95
2018-08-04T17:19:42.323Z,12.80
2018-08-04T17:22:09.953Z,13.38
2018-08-04T17:24:37.731Z,11.30
2018-08-04T17:27:05.268Z,11.15
2018-08-04T17:29:32.834Z,12.93
2018-08-04T17:32:00.421Z,12.33
2018-08-04T17:34:28.625Z,11.70
2018-08-04T17:36:56.730Z,11.90
2018-08-04T17:39:24.527Z,12.15
2018-08-04T17:41:52.271Z,12.85
2018-08-04T17:44:20.641Z,13.25
2018-08-04T17:46:48.248Z,13.45
2018-08-04T17:49:15.841Z,12.23
2018-08-04T17:51:45.097Z,12.30
2018-08-04T17:54:12.680Z,11.88
2018-08-04T17:56:40.472Z,11.57
2018-08-04T17:59:08.472Z,10.08
2018-08-04T18:01:36.050Z,10.28
2018-08-04T18:04:03.729Z,9.88
2018-08-04T18:06:31.355Z,9.93
2018-08-04T18:08:59.067Z,10.78
2018-08-04T18:11:26.612Z,10.50
2018-08-04T18:13:54.188Z,10.53
2018-08-04T18:16:21.732Z,10.63
2018-08-04T18:18:49.462Z,8.85
2018-08-04T18:21:17.032Z,8.98
2018-08-04T18:23:44.597Z,8.20
2018-08-04T18:26:12.339Z,7.83
2018-08-04T18:28:40.515Z,7.97
2018-08-04T18:31:08.089Z,8.98
2018-08-04T18:33:35.666Z,8.58
2018-08-04T18:36:03.272Z,8.85
2018-08-04T18:38:30.852Z,11.38
2018-08-04T18:40:58.406Z,11.00
2018-08-04T18:43:26.172Z,10.10
2018-08-04T18:45:53.737Z,12.03
2018-08-04T18:48:21.619Z,12.13
2018-08-04T18:50:49.788Z,10.78
2018-08-04T18:53:19.371Z,10.50
2018-08-04T18:55:47.127Z,9.88
2018-08-04T18:58:14.904Z,8.83
2018-08-04T19:00:42.777Z,8.40
2018-08-04T19:03:10.535Z,7.78
2018-08-04T19:05:38.064Z,7.22
2018-08-04T19:08:05.721Z,7.90
2018-08-04T19:10:33.285Z,8.03
2018-08-04T19:13:03.568Z,8.45
2018-08-04T19:15:31.191Z,8.48
2018-08-04T19:17:59.365Z,7.42
2018-08-04T19:20:27.303Z,7.47
2018-08-04T19:22:54.892Z,6.78
2018-08-04T19:25:22.471Z,7.27
2018-08-04T19:27:50.036Z,8.10
2018-08-04T19:30:17.675Z,7.25
2018-08-04T19:32:46.888Z,8.35
2018-08-04T19:35:15.113Z,7.55
2018-08-04T19:37:42.725Z,8.58
2018-08-04T19:40:11.536Z,7.80
2018-08-04T19:42:39.588Z,7.40
2018-08-04T19:45:07.877Z,8.00
2018-08-04T19:47:36.024Z,9.00
2018-08-04T19:50:03.907Z,9.50
2018-08-04T19:52:32.052Z,8.90
2018-08-04T19:54:59.954Z,8.50
2018-08-04T19:57:27.606Z,8.93
2018-08-04T19:59:55.582Z,9.45
2018-08-04T20:02:23.141Z,10.32
2018-08-04T20:04:50.805Z,9.50
2018-08-04T20:07:18.616Z,9.38
2018-08-04T20:09:46.283Z,9.20
2018-08-04T20:12:14.126Z,9.15
2018-08-04T20:14:42.072Z,9.68
2018-08-04T20:17:09.933Z,10.32
2018-08-04T20:19:38.100Z,9.48
2018-08-04T20:22:10.601Z,9.43
2018-08-04T20:24:38.484Z,9.23
2018-08-04T20:27:06.131Z,9.60
2018-08-04T20:29:33.951Z,8.75
2018-08-04T20:32:01.558Z,8.85
2018-08-04T20:34:29.293Z,8.63
2018-08-04T20:36:57.365Z,8.58
2018-08-04T20:39:25.130Z,9.75
2018-08-04T20:41:53.931Z,10.03
2018-08-04T20:44:21.781Z,10.28
2018-08-04T20:46:49.448Z,9.68
2018-08-04T20:49:17.675Z,9.50
2018-08-04T20:51:45.607Z,8.93
2018-08-04T20:54:13.497Z,8.30
2018-08-04T20:56:41.712Z,10.30
2018-08-04T20:59:09.503Z,9.70
2018-08-04T21:02:13.425Z,9.60
2018-08-04T21:04:41.165Z,7.92
2018-08-04T21:07:09.034Z,9.85
2018-08-04T21:09:36.832Z,9.18
2018-08-04T21:12:06.752Z,10.60
2018-08-04T21:14:34.379Z,10.95
2018-08-04T21:17:02.956Z,10.68
2018-08-04T21:19:30.585Z,10.88
2018-08-04T21:21:58.616Z,10.72
2018-08-04T21:24:26.609Z,10.32
2018-08-04T21:26:55.017Z,10.40
2018-08-04T21:29:23.056Z,10.10
2018-08-04T21:31:50.717Z,10.98
2018-08-04T21:34:18.621Z,10.58
2018-08-04T21:36:46.233Z,10.43
2018-08-04T21:39:15.256Z,10.50
2018-08-04T21:41:43.953Z,9.95
2018-08-04T21:44:12.194Z,11.57
2018-08-04T21:46:45.991Z,10.93
2018-08-04T21:49:13.796Z,10.28
2018-08-04T21:51:42.729Z,10.75
2018-08-04T21:54:11.253Z,10.38
2018-08-04T21:56:38.897Z,10.48
2018-08-04T21:59:06.829Z,11.28
2018-08-04T22:01:34.759Z,10.03
2018-08-04T22:04:02.416Z,10.82
2018-08-04T22:06:46.487Z,11.15
2018-08-04T22:09:21.757Z,11.73
2018-08-04T22:11:49.800Z,11.45
2018-08-04T22:14:17.669Z,10.88
2018-08-04T22:16:45.425Z,9.50
2018-08-04T22:19:13.093Z,9.93
2018-08-04T22:21:40.761Z,11.28
2018-08-04T22:24:09.132Z,12.20
2018-08-04T22:26:36.882Z,10.65
2018-08-04T22:29:04.871Z,11.03
2018-08-04T22:31:32.708Z,11.20
2018-08-04T22:34:00.322Z,10.15
2018-08-04T22:36:28.016Z,10.45
2018-08-04T22:38:55.730Z,11.00
2018-08-04T22:41:23.365Z,11.67
2018-08-04T22:43:51.484Z,12.00
2018-08-04T22:46:19.560Z,11.00
2018-08-04T22:48:48.856Z,10.88
2018-08-04T22:51:22.834Z,9.53
2018-08-04T22:53:50.917Z,10.68
2018-08-04T22:56:18.641Z,10.63
2018-08-04T22:58:46.411Z,9.20
2018-08-04T23:01:14.023Z,9.83
2018-08-04T23:03:41.981Z,10.65
2018-08-04T23:06:09.860Z,11.08
2018-08-04T23:08:37.641Z,13.40
2018-08-04T23:11:05.292Z,12.60
2018-08-04T23:13:33.006Z,11.80
2018-08-04T23:16:00.868Z,12.43
2018-08-04T23:18:28.836Z,13.62
2018-08-04T23:20:56.771Z,13.13
2018-08-04T23:23:24.499Z,11.57
2018-08-04T23:25:52.404Z,9.98
2018-08-04T23:28:20.064Z,10.08
2018-08-04T23:30:47.826Z,9.63
2018-08-04T23:33:15.515Z,8.53
2018-08-04T23:35:43.224Z,10.23
2018-08-04T23:38:11.901Z,13.60
2018-08-04T23:40:39.631Z,15.65
2018-08-04T23:43:07.338Z,14.50
2018-08-04T23:45:35.695Z,14.05
2018-08-04T23:48:03.436Z,13.18
2018-08-04T23:50:31.243Z,10.68
2018-08-04T23:52:58.979Z,10.63
2018-08-04T23:55:26.653Z,10.35
2018-08-04T23:57:54.423Z,9.10
